sensor_id;sensor_type;location;lat;lon;timestamp;P1;durP1;ratioP1;P2;durP2;ratioP2
16954;SDS011;8594;52.052;8.354;2022-11-15T00:00:31;19.37;;;11.47;;
16954;SDS011;8594;52.052;8.354;2022-11-15T00:02:59;18.53;;;11.90;;
16954;SDS011;8594;52.052;8.354;2022-11-15T00:05:26;19.57;;;11.63;;
16954;SDS011;8594;52.052;8.354;2022-11-15T00:07:53;19.33;;;10.70;;
16954;SDS011;8594;52.052;8.354;2022-11-15T00:10:19;18.90;;;11.13;;
16954;SDS011;8594;52.052;8.354;2022-11-15T00:12:46;20.63;;;11.47;;
16954;SDS011;8594;52.052;8.354;2022-11-15T00:15:13;15.23;;;9.87;;
16954;SDS011;8594;52.052;8.354;2022-11-15T00:17:41;16.37;;;9.93;;
16954;SDS011;8594;52.052;8.354;2022-11-15T00:20:09;15.83;;;9.87;;
16954;SDS011;8594;52.052;8.354;2022-11-15T00:22:37;17.93;;;10.60;;
16954;SDS011;8594;52.052;8.354;2022-11-15T00:25:04;17.27;;;10.27;;
16954;SDS011;8594;52.052;8.354;2022-11-15T00:27:32;20.33;;;10.03;;
16954;SDS011;8594;52.052;8.354;2022-11-15T00:30:00;18.57;;;9.97;;
16954;SDS011;8594;52.052;8.354;2022-11-15T00:32:30;16.07;;;9.33;;
16954;SDS011;8594;52.052;8.354;2022-11-15T00:34:59;18.67;;;9.80;;
16954;SDS011;8594;52.052;8.354;2022-11-15T00:37:26;19.33;;;9.73;;
16954;SDS011;8594;52.052;8.354;2022-11-15T00:39:53;15.17;;;9.27;;
16954;SDS011;8594;52.052;8.354;2022-11-15T00:42:19;17.13;;;9.10;;
16954;SDS011;8594;52.052;8.354;2022-11-15T00:44:46;14.57;;;8.97;;
16954;SDS011;8594;52.052;8.354;2022-11-15T00:47:13;14.13;;;8.40;;
16954;SDS011;8594;52.052;8.354;2022-11-15T00:49:40;13.03;;;8.07;;
16954;SDS011;8594;52.052;8.354;2022-11-15T00:52:08;13.47;;;8.00;;
16954;SDS011;8594;52.052;8.354;2022-11-15T00:54:35;14.00;;;8.23;;
16954;SDS011;8594;52.052;8.354;2022-11-15T00:57:02;14.23;;;8.43;;
16954;SDS011;8594;52.052;8.354;2022-11-15T00:59:29;15.27;;;8.43;;
16954;SDS011;8594;52.052;8.354;2022-11-15T01:01:56;11.77;;;7.63;;
16954;SDS011;8594;52.052;8.354;2022-11-15T01:04:23;15.43;;;8.10;;
16954;SDS011;8594;52.052;8.354;2022-11-15T01:06:50;16.20;;;8.07;;
16954;SDS011;8594;52.052;8.354;2022-11-15T01:09:18;14.50;;;9.00;;
16954;SDS011;8594;52.052;8.354;2022-11-15T01:11:45;18.37;;;7.67;;
16954;SDS011;8594;52.052;8.354;2022-11-15T01:14:12;14.20;;;7.77;;
16954;SDS011;8594;52.052;8.354;2022-11-15T01:16:40;12.93;;;7.27;;
16954;SDS011;8594;52.052;8.354;2022-11-15T01:19:06;12.33;;;7.07;;
16954;SDS011;8594;52.052;8.354;2022-11-15T01:21:33;13.63;;;7.53;;
16954;SDS011;8594;52.052;8.354;2022-11-15T01:24:00;12.60;;;7.90;;
16954;SDS011;8594;52.052;8.354;2022-11-15T01:26:28;10.20;;;6.50;;
16954;SDS011;8594;52.052;8.354;2022-11-15T01:28:55;15.33;;;7.37;;
16954;SDS011;8594;52.052;8.354;2022-11-15T01:31:22;10.87;;;7.27;;
16954;SDS011;8594;52.052;8.354;2022-11-15T01:33:49;14.13;;;6.77;;
16954;SDS011;8594;52.052;8.354;2022-11-15T01:36:17;14.00;;;6.77;;
16954;SDS011;8594;52.052;8.354;2022-11-15T01:38:47;12.20;;;6.67;;
16954;SDS011;8594;52.052;8.354;2022-11-15T01:41:21;12.50;;;7.40;;
16954;SDS011;8594;52.052;8.354;2022-11-15T01:43:53;12.80;;;6.80;;
16954;SDS011;8594;52.052;8.354;2022-11-15T01:46:24;8.73;;;6.23;;
16954;SDS011;8594;52.052;8.354;2022-11-15T01:48:56;12.60;;;6.80;;
16954;SDS011;8594;52.052;8.354;2022-11-15T01:51:29;13.47;;;7.03;;
16954;SDS011;8594;52.052;8.354;2022-11-15T01:53:59;14.00;;;6.73;;
16954;SDS011;8594;52.052;8.354;2022-11-15T01:56:36;11.80;;;6.60;;
16954;SDS011;8594;52.052;8.354;2022-11-15T01:59:11;13.87;;;6.67;;
16954;SDS011;8594;52.052;8.354;2022-11-15T02:01:38;11.20;;;6.53;;
16954;SDS011;8594;52.052;8.354;2022-11-15T02:04:07;11.83;;;7.03;;
16954;SDS011;8594;52.052;8.354;2022-11-15T02:06:39;10.07;;;6.20;;
16954;SDS011;8594;52.052;8.354;2022-11-15T02:09:09;10.53;;;6.63;;
16954;SDS011;8594;52.052;8.354;2022-11-15T02:11:37;11.60;;;6.70;;
16954;SDS011;8594;52.052;8.354;2022-11-15T02:14:04;9.57;;;6.00;;
16954;SDS011;8594;52.052;8.354;2022-11-15T02:16:35;12.93;;;7.00;;
16954;SDS011;8594;52.052;8.354;2022-11-15T02:19:21;13.93;;;6.57;;
16954;SDS011;8594;52.052;8.354;2022-11-15T02:22:14;10.60;;;6.17;;
16954;SDS011;8594;52.052;8.354;2022-11-15T02:25:03;10.43;;;6.37;;
16954;SDS011;8594;52.052;8.354;2022-11-15T02:31:13;10.47;;;6.53;;
16954;SDS011;8594;52.052;8.354;2022-11-15T02:33:50;7.63;;;5.83;;
16954;SDS011;8594;52.052;8.354;2022-11-15T02:36:29;11.90;;;6.90;;
16954;SDS011;8594;52.052;8.354;2022-11-15T02:39:08;13.70;;;6.90;;
16954;SDS011;8594;52.052;8.354;2022-11-15T02:41:47;12.17;;;7.27;;
16954;SDS011;8594;52.052;8.354;2022-11-15T02:44:21;12.37;;;7.10;;
16954;SDS011;8594;52.052;8.354;2022-11-15T02:46:57;13.77;;;7.50;;
16954;SDS011;8594;52.052;8.354;2022-11-15T02:49:41;15.87;;;6.97;;
16954;SDS011;8594;52.052;8.354;2022-11-15T02:52:14;9.67;;;6.50;;
16954;SDS011;8594;52.052;8.354;2022-11-15T02:54:43;12.67;;;7.47;;
16954;SDS011;8594;52.052;8.354;2022-11-15T02:57:20;14.93;;;7.03;;
16954;SDS011;8594;52.052;8.354;2022-11-15T03:00:03;12.07;;;7.20;;
16954;SDS011;8594;52.052;8.354;2022-11-15T03:02:43;15.27;;;8.57;;
16954;SDS011;8594;52.052;8.354;2022-11-15T03:05:47;15.07;;;8.27;;
16954;SDS011;8594;52.052;8.354;2022-11-15T03:08:26;14.27;;;8.23;;
16954;SDS011;8594;52.052;8.354;2022-11-15T03:11:03;18.57;;;8.47;;
16954;SDS011;8594;52.052;8.354;2022-11-15T03:13:36;18.33;;;7.70;;
16954;SDS011;8594;52.052;8.354;2022-11-15T03:16:15;14.53;;;8.77;;
16954;SDS011;8594;52.052;8.354;2022-11-15T03:18:49;15.77;;;7.70;;
16954;SDS011;8594;52.052;8.354;2022-11-15T03:21:25;14.60;;;8.47;;
16954;SDS011;8594;52.052;8.354;2022-11-15T03:23:56;15.73;;;8.70;;
16954;SDS011;8594;52.052;8.354;2022-11-15T03:26:32;14.40;;;8.30;;
16954;SDS011;8594;52.052;8.354;2022-11-15T03:29:03;15.23;;;8.93;;
16954;SDS011;8594;52.052;8.354;2022-11-15T03:31:38;14.97;;;8.20;;
16954;SDS011;8594;52.052;8.354;2022-11-15T03:34:17;14.77;;;8.37;;
16954;SDS011;8594;52.052;8.354;2022-11-15T03:36:52;14.83;;;8.50;;
16954;SDS011;8594;52.052;8.354;2022-11-15T03:39:19;15.80;;;8.80;;
16954;SDS011;8594;52.052;8.354;2022-11-15T03:41:49;16.97;;;9.03;;
16954;SDS011;8594;52.052;8.354;2022-11-15T03:44:31;19.07;;;9.17;;
16954;SDS011;8594;52.052;8.354;2022-11-15T03:47:09;16.77;;;9.50;;
16954;SDS011;8594;52.052;8.354;2022-11-15T03:49:46;16.50;;;9.30;;
16954;SDS011;8594;52.052;8.354;2022-11-15T03:52:19;22.30;;;9.27;;
16954;SDS011;8594;52.052;8.354;2022-11-15T03:54:48;16.50;;;9.33;;
16954;SDS011;8594;52.052;8.354;2022-11-15T03:57:16;19.00;;;9.50;;
16954;SDS011;8594;52.052;8.354;2022-11-15T03:59:43;15.77;;;8.97;;
16954;SDS011;8594;52.052;8.354;2022-11-15T04:02:10;17.83;;;9.30;;
16954;SDS011;8594;52.052;8.354;2022-11-15T04:04:39;19.30;;;9.33;;
16954;SDS011;8594;52.052;8.354;2022-11-15T04:07:07;18.87;;;9.83;;
16954;SDS011;8594;52.052;8.354;2022-11-15T04:09:34;18.00;;;9.17;;
16954;SDS011;8594;52.052;8.354;2022-11-15T04:12:22;14.63;;;9.43;;
16954;SDS011;8594;52.052;8.354;2022-11-15T04:14:55;15.87;;;9.20;;
16954;SDS011;8594;52.052;8.354;2022-11-15T04:17:36;16.20;;;9.53;;
16954;SDS011;8594;52.052;8.354;2022-11-15T04:20:06;15.63;;;9.13;;
16954;SDS011;8594;52.052;8.354;2022-11-15T04:22:56;16.63;;;9.97;;
16954;SDS011;8594;52.052;8.354;2022-11-15T04:25:42;21.17;;;10.57;;
16954;SDS011;8594;52.052;8.354;2022-11-15T04:28:10;20.10;;;9.13;;
16954;SDS011;8594;52.052;8.354;2022-11-15T04:30:38;20.37;;;10.53;;
16954;SDS011;8594;52.052;8.354;2022-11-15T04:33:05;23.27;;;10.33;;
16954;SDS011;8594;52.052;8.354;2022-11-15T04:35:32;19.13;;;9.70;;
16954;SDS011;8594;52.052;8.354;2022-11-15T04:38:01;16.47;;;9.47;;
16954;SDS011;8594;52.052;8.354;2022-11-15T04:40:29;19.37;;;10.40;;
16954;SDS011;8594;52.052;8.354;2022-11-15T04:42:55;32.53;;;12.30;;
16954;SDS011;8594;52.052;8.354;2022-11-15T04:45:23;19.73;;;9.70;;
16954;SDS011;8594;52.052;8.354;2022-11-15T04:47:50;26.07;;;10.00;;
16954;SDS011;8594;52.052;8.354;2022-11-15T04:50:17;19.03;;;9.93;;
16954;SDS011;8594;52.052;8.354;2022-11-15T04:52:49;18.83;;;10.40;;
16954;SDS011;8594;52.052;8.354;2022-11-15T04:55:19;19.07;;;10.00;;
16954;SDS011;8594;52.052;8.354;2022-11-15T04:57:46;21.20;;;10.40;;
16954;SDS011;8594;52.052;8.354;2022-11-15T05:00:14;18.00;;;10.07;;
16954;SDS011;8594;52.052;8.354;2022-11-15T05:02:43;23.53;;;11.33;;
16954;SDS011;8594;52.052;8.354;2022-11-15T05:05:27;19.07;;;9.73;;
16954;SDS011;8594;52.052;8.354;2022-11-15T05:07:54;24.90;;;11.23;;
16954;SDS011;8594;52.052;8.354;2022-11-15T05:10:22;21.90;;;11.37;;
16954;SDS011;8594;52.052;8.354;2022-11-15T05:12:49;26.43;;;11.30;;
16954;SDS011;8594;52.052;8.354;2022-11-15T05:15:16;18.67;;;10.43;;
16954;SDS011;8594;52.052;8.354;2022-11-15T05:17:43;18.50;;;10.63;;
16954;SDS011;8594;52.052;8.354;2022-11-15T05:20:10;22.67;;;11.37;;
16954;SDS011;8594;52.052;8.354;2022-11-15T05:22:38;18.57;;;11.07;;
16954;SDS011;8594;52.052;8.354;2022-11-15T05:25:06;17.43;;;10.57;;
16954;SDS011;8594;52.052;8.354;2022-11-15T05:27:35;21.50;;;11.17;;
16954;SDS011;8594;52.052;8.354;2022-11-15T05:30:02;20.03;;;11.80;;
16954;SDS011;8594;52.052;8.354;2022-11-15T05:32:29;19.27;;;11.53;;
16954;SDS011;8594;52.052;8.354;2022-11-15T05:34:57;21.50;;;11.80;;
16954;SDS011;8594;52.052;8.354;2022-11-15T05:37:24;24.93;;;11.93;;
16954;SDS011;8594;52.052;8.354;2022-11-15T05:39:51;18.17;;;11.37;;
16954;SDS011;8594;52.052;8.354;2022-11-15T05:42:18;20.83;;;10.87;;
16954;SDS011;8594;52.052;8.354;2022-11-15T05:44:47;18.90;;;10.97;;
16954;SDS011;8594;52.052;8.354;2022-11-15T05:47:16;20.60;;;10.60;;
16954;SDS011;8594;52.052;8.354;2022-11-15T05:49:49;20.03;;;11.23;;
16954;SDS011;8594;52.052;8.354;2022-11-15T05:52:19;18.60;;;10.30;;
16954;SDS011;8594;52.052;8.354;2022-11-15T05:54:50;18.50;;;10.57;;
16954;SDS011;8594;52.052;8.354;2022-11-15T05:57:19;17.40;;;10.93;;
16954;SDS011;8594;52.052;8.354;2022-11-15T05:59:47;20.70;;;10.87;;
16954;SDS011;8594;52.052;8.354;2022-11-15T06:02:14;18.73;;;11.00;;
16954;SDS011;8594;52.052;8.354;2022-11-15T06:04:41;17.57;;;11.13;;
16954;SDS011;8594;52.052;8.354;2022-11-15T06:07:08;17.73;;;11.40;;
16954;SDS011;8594;52.052;8.354;2022-11-15T06:09:35;20.13;;;10.27;;
16954;SDS011;8594;52.052;8.354;2022-11-15T06:12:02;23.17;;;11.43;;
16954;SDS011;8594;52.052;8.354;2022-11-15T06:14:30;25.43;;;11.33;;
16954;SDS011;8594;52.052;8.354;2022-11-15T06:16:58;20.40;;;11.73;;
16954;SDS011;8594;52.052;8.354;2022-11-15T06:19:25;20.63;;;11.53;;
16954;SDS011;8594;52.052;8.354;2022-11-15T06:21:52;21.37;;;11.03;;
16954;SDS011;8594;52.052;8.354;2022-11-15T06:24:19;18.03;;;11.37;;
16954;SDS011;8594;52.052;8.354;2022-11-15T06:26:46;22.40;;;11.43;;
16954;SDS011;8594;52.052;8.354;2022-11-15T06:29:12;22.50;;;11.97;;
16954;SDS011;8594;52.052;8.354;2022-11-15T06:31:39;21.40;;;11.27;;
16954;SDS011;8594;52.052;8.354;2022-11-15T06:34:07;21.40;;;11.17;;
16954;SDS011;8594;52.052;8.354;2022-11-15T06:36:35;22.43;;;11.93;;
16954;SDS011;8594;52.052;8.354;2022-11-15T06:39:03;22.47;;;11.60;;
16954;SDS011;8594;52.052;8.354;2022-11-15T06:41:33;24.73;;;11.60;;
16954;SDS011;8594;52.052;8.354;2022-11-15T06:44:00;18.10;;;11.47;;
16954;SDS011;8594;52.052;8.354;2022-11-15T06:46:27;16.93;;;10.63;;
16954;SDS011;8594;52.052;8.354;2022-11-15T06:48:54;19.57;;;11.27;;
16954;SDS011;8594;52.052;8.354;2022-11-15T06:51:23;20.80;;;12.17;;
16954;SDS011;8594;52.052;8.354;2022-11-15T06:53:49;18.87;;;11.10;;
16954;SDS011;8594;52.052;8.354;2022-11-15T06:56:16;20.33;;;10.80;;
16954;SDS011;8594;52.052;8.354;2022-11-15T06:58:43;19.60;;;10.47;;
16954;SDS011;8594;52.052;8.354;2022-11-15T07:01:11;21.30;;;11.40;;
16954;SDS011;8594;52.052;8.354;2022-11-15T07:03:39;20.27;;;10.80;;
16954;SDS011;8594;52.052;8.354;2022-11-15T07:06:07;17.17;;;10.30;;
16954;SDS011;8594;52.052;8.354;2022-11-15T07:08:37;20.67;;;10.30;;
16954;SDS011;8594;52.052;8.354;2022-11-15T07:11:05;18.87;;;9.87;;
16954;SDS011;8594;52.052;8.354;2022-11-15T07:13:34;15.13;;;9.17;;
16954;SDS011;8594;52.052;8.354;2022-11-15T07:16:02;18.20;;;9.80;;
16954;SDS011;8594;52.052;8.354;2022-11-15T07:18:30;16.70;;;9.63;;
16954;SDS011;8594;52.052;8.354;2022-11-15T07:21:00;17.53;;;9.90;;
16954;SDS011;8594;52.052;8.354;2022-11-15T07:23:28;16.33;;;9.00;;
16954;SDS011;8594;52.052;8.354;2022-11-15T07:25:57;14.60;;;9.50;;
16954;SDS011;8594;52.052;8.354;2022-11-15T07:28:24;16.30;;;9.27;;
16954;SDS011;8594;52.052;8.354;2022-11-15T07:30:51;17.33;;;9.20;;
16954;SDS011;8594;52.052;8.354;2022-11-15T07:33:18;16.47;;;9.70;;
16954;SDS011;8594;52.052;8.354;2022-11-15T07:35:45;16.50;;;9.13;;
16954;SDS011;8594;52.052;8.354;2022-11-15T07:38:14;16.13;;;9.27;;
16954;SDS011;8594;52.052;8.354;2022-11-15T07:40:44;14.23;;;8.77;;
16954;SDS011;8594;52.052;8.354;2022-11-15T07:43:13;15.50;;;8.93;;
16954;SDS011;8594;52.052;8.354;2022-11-15T07:45:40;17.83;;;9.83;;
16954;SDS011;8594;52.052;8.354;2022-11-15T07:48:09;14.53;;;9.10;;
16954;SDS011;8594;52.052;8.354;2022-11-15T07:50:36;17.43;;;9.90;;
16954;SDS011;8594;52.052;8.354;2022-11-15T07:53:07;15.73;;;9.07;;
16954;SDS011;8594;52.052;8.354;2022-11-15T07:55:35;17.57;;;9.27;;
16954;SDS011;8594;52.052;8.354;2022-11-15T07:58:03;12.17;;;8.53;;
16954;SDS011;8594;52.052;8.354;2022-11-15T08:00:34;14.50;;;8.90;;
16954;SDS011;8594;52.052;8.354;2022-11-15T08:03:02;16.80;;;9.40;;
16954;SDS011;8594;52.052;8.354;2022-11-15T08:05:30;17.67;;;8.97;;
16954;SDS011;8594;52.052;8.354;2022-11-15T08:07:58;18.30;;;8.83;;
16954;SDS011;8594;52.052;8.354;2022-11-15T08:10:25;18.57;;;9.20;;
16954;SDS011;8594;52.052;8.354;2022-11-15T08:12:56;13.93;;;8.73;;
16954;SDS011;8594;52.052;8.354;2022-11-15T08:15:25;12.07;;;7.93;;
16954;SDS011;8594;52.052;8.354;2022-11-15T08:17:54;15.93;;;8.40;;
16954;SDS011;8594;52.052;8.354;2022-11-15T08:20:22;12.97;;;8.03;;
16954;SDS011;8594;52.052;8.354;2022-11-15T08:22:50;18.00;;;8.37;;
16954;SDS011;8594;52.052;8.354;2022-11-15T08:25:17;12.50;;;7.87;;
16954;SDS011;8594;52.052;8.354;2022-11-15T08:27:44;12.87;;;8.17;;
16954;SDS011;8594;52.052;8.354;2022-11-15T08:30:11;10.87;;;7.50;;
16954;SDS011;8594;52.052;8.354;2022-11-15T08:32:41;14.90;;;7.40;;
16954;SDS011;8594;52.052;8.354;2022-11-15T08:35:09;10.80;;;7.40;;
16954;SDS011;8594;52.052;8.354;2022-11-15T08:37:36;11.20;;;7.03;;
16954;SDS011;8594;52.052;8.354;2022-11-15T08:40:04;12.10;;;7.00;;
16954;SDS011;8594;52.052;8.354;2022-11-15T08:42:32;8.97;;;6.50;;
16954;SDS011;8594;52.052;8.354;2022-11-15T08:44:59;12.30;;;7.17;;
16954;SDS011;8594;52.052;8.354;2022-11-15T08:47:26;11.37;;;7.00;;
16954;SDS011;8594;52.052;8.354;2022-11-15T08:49:53;10.23;;;6.83;;
16954;SDS011;8594;52.052;8.354;2022-11-15T08:52:22;8.40;;;5.90;;
16954;SDS011;8594;52.052;8.354;2022-11-15T08:54:49;7.40;;;5.30;;
16954;SDS011;8594;52.052;8.354;2022-11-15T08:57:16;8.70;;;5.50;;
16954;SDS011;8594;52.052;8.354;2022-11-15T08:59:43;7.20;;;4.37;;
16954;SDS011;8594;52.052;8.354;2022-11-15T09:02:11;9.57;;;5.13;;
16954;SDS011;8594;52.052;8.354;2022-11-15T09:04:40;8.87;;;4.63;;
16954;SDS011;8594;52.052;8.354;2022-11-15T09:07:07;7.50;;;4.13;;
16954;SDS011;8594;52.052;8.354;2022-11-15T09:09:36;7.30;;;4.40;;
16954;SDS011;8594;52.052;8.354;2022-11-15T09:12:04;8.30;;;4.50;;
16954;SDS011;8594;52.052;8.354;2022-11-15T09:14:32;5.23;;;4.03;;
16954;SDS011;8594;52.052;8.354;2022-11-15T09:17:00;5.50;;;3.63;;
16954;SDS011;8594;52.052;8.354;2022-11-15T09:19:27;4.57;;;3.10;;
16954;SDS011;8594;52.052;8.354;2022-11-15T09:21:54;5.20;;;3.17;;
16954;SDS011;8594;52.052;8.354;2022-11-15T09:24:21;5.57;;;3.53;;
16954;SDS011;8594;52.052;8.354;2022-11-15T09:26:50;5.03;;;2.87;;
16954;SDS011;8594;52.052;8.354;2022-11-15T09:29:17;8.03;;;3.60;;
16954;SDS011;8594;52.052;8.354;2022-11-15T09:31:45;5.63;;;2.77;;
16954;SDS011;8594;52.052;8.354;2022-11-15T09:34:11;3.73;;;2.33;;
16954;SDS011;8594;52.052;8.354;2022-11-15T09:36:39;5.27;;;2.50;;
16954;SDS011;8594;52.052;8.354;2022-11-15T09:39:06;5.90;;;2.80;;
16954;SDS011;8594;52.052;8.354;2022-11-15T09:44:47;5.17;;;2.60;;
16954;SDS011;8594;52.052;8.354;2022-11-15T09:47:44;6.63;;;2.30;;
16954;SDS011;8594;52.052;8.354;2022-11-15T09:50:36;3.87;;;2.30;;
16954;SDS011;8594;52.052;8.354;2022-11-15T09:53:09;4.03;;;2.17;;
16954;SDS011;8594;52.052;8.354;2022-11-15T09:55:41;3.23;;;2.23;;
16954;SDS011;8594;52.052;8.354;2022-11-15T09:58:22;3.00;;;1.90;;
16954;SDS011;8594;52.052;8.354;2022-11-15T10:00:59;4.20;;;2.00;;
16954;SDS011;8594;52.052;8.354;2022-11-15T10:03:34;3.33;;;2.20;;
16954;SDS011;8594;52.052;8.354;2022-11-15T10:06:08;5.97;;;2.40;;
16954;SDS011;8594;52.052;8.354;2022-11-15T10:08:53;4.03;;;2.37;;
16954;SDS011;8594;52.052;8.354;2022-11-15T10:11:28;3.67;;;2.00;;
16954;SDS011;8594;52.052;8.354;2022-11-15T10:14:00;2.80;;;1.50;;
16954;SDS011;8594;52.052;8.354;2022-11-15T10:19:42;2.03;;;1.57;;
16954;SDS011;8594;52.052;8.354;2022-11-15T10:22:25;7.07;;;2.40;;
16954;SDS011;8594;52.052;8.354;2022-11-15T10:25:00;2.47;;;1.57;;
16954;SDS011;8594;52.052;8.354;2022-11-15T10:27:43;3.20;;;1.60;;
16954;SDS011;8594;52.052;8.354;2022-11-15T10:30:18;2.97;;;1.57;;
16954;SDS011;8594;52.052;8.354;2022-11-15T10:32:46;7.17;;;2.07;;
16954;SDS011;8594;52.052;8.354;2022-11-15T10:35:16;2.00;;;1.47;;
16954;SDS011;8594;52.052;8.354;2022-11-15T10:37:46;3.67;;;1.60;;
16954;SDS011;8594;52.052;8.354;2022-11-15T10:40:18;3.40;;;1.60;;
16954;SDS011;8594;52.052;8.354;2022-11-15T10:42:48;2.60;;;1.90;;
16954;SDS011;8594;52.052;8.354;2022-11-15T10:45:33;3.83;;;1.70;;
16954;SDS011;8594;52.052;8.354;2022-11-15T10:48:23;4.57;;;2.00;;
16954;SDS011;8594;52.052;8.354;2022-11-15T10:50:51;6.37;;;1.90;;
16954;SDS011;8594;52.052;8.354;2022-11-15T10:53:22;4.90;;;1.53;;
16954;SDS011;8594;52.052;8.354;2022-11-15T10:55:57;1.87;;;1.37;;
16954;SDS011;8594;52.052;8.354;2022-11-15T10:58:33;5.57;;;1.60;;
16954;SDS011;8594;52.052;8.354;2022-11-15T11:01:12;3.63;;;1.80;;
16954;SDS011;8594;52.052;8.354;2022-11-15T11:03:42;2.90;;;1.40;;
16954;SDS011;8594;52.052;8.354;2022-11-15T11:06:11;4.07;;;1.60;;
16954;SDS011;8594;52.052;8.354;2022-11-15T11:08:41;3.90;;;1.33;;
16954;SDS011;8594;52.052;8.354;2022-11-15T11:11:21;2.30;;;1.20;;
16954;SDS011;8594;52.052;8.354;2022-11-15T11:13:48;3.20;;;1.20;;
16954;SDS011;8594;52.052;8.354;2022-11-15T11:16:22;2.93;;;1.40;;
16954;SDS011;8594;52.052;8.354;2022-11-15T11:19:15;2.87;;;1.27;;
16954;SDS011;8594;52.052;8.354;2022-11-15T11:21:59;2.70;;;1.30;;
16954;SDS011;8594;52.052;8.354;2022-11-15T11:24:36;3.47;;;1.40;;
16954;SDS011;8594;52.052;8.354;2022-11-15T11:27:17;4.57;;;1.37;;
16954;SDS011;8594;52.052;8.354;2022-11-15T11:30:03;2.80;;;1.53;;
16954;SDS011;8594;52.052;8.354;2022-11-15T11:32:52;2.17;;;1.40;;
16954;SDS011;8594;52.052;8.354;2022-11-15T11:35:34;1.63;;;1.13;;
16954;SDS011;8594;52.052;8.354;2022-11-15T11:38:19;1.60;;;1.27;;
16954;SDS011;8594;52.052;8.354;2022-11-15T11:41:07;4.23;;;1.63;;
16954;SDS011;8594;52.052;8.354;2022-11-15T11:43:48;2.00;;;1.43;;
16954;SDS011;8594;52.052;8.354;2022-11-15T11:46:38;2.83;;;1.47;;
16954;SDS011;8594;52.052;8.354;2022-11-15T11:49:20;2.53;;;1.30;;
16954;SDS011;8594;52.052;8.354;2022-11-15T11:51:58;3.80;;;1.70;;
16954;SDS011;8594;52.052;8.354;2022-11-15T11:54:34;6.63;;;1.63;;
16954;SDS011;8594;52.052;8.354;2022-11-15T11:57:13;2.17;;;1.50;;
16954;SDS011;8594;52.052;8.354;2022-11-15T11:59:53;3.13;;;1.30;;
16954;SDS011;8594;52.052;8.354;2022-11-15T12:02:27;2.87;;;1.40;;
16954;SDS011;8594;52.052;8.354;2022-11-15T12:05:03;4.30;;;1.60;;
16954;SDS011;8594;52.052;8.354;2022-11-15T12:07:38;2.33;;;1.60;;
16954;SDS011;8594;52.052;8.354;2022-11-15T12:10:12;1.67;;;1.17;;
16954;SDS011;8594;52.052;8.354;2022-11-15T12:12:49;4.37;;;1.57;;
16954;SDS011;8594;52.052;8.354;2022-11-15T12:15:23;3.63;;;1.93;;
16954;SDS011;8594;52.052;8.354;2022-11-15T12:17:55;2.60;;;1.60;;
16954;SDS011;8594;52.052;8.354;2022-11-15T12:20:27;3.30;;;1.67;;
16954;SDS011;8594;52.052;8.354;2022-11-15T12:23:01;2.70;;;1.70;;
16954;SDS011;8594;52.052;8.354;2022-11-15T12:25:40;2.80;;;1.57;;
16954;SDS011;8594;52.052;8.354;2022-11-15T12:28:17;2.40;;;1.50;;
16954;SDS011;8594;52.052;8.354;2022-11-15T12:30:56;4.73;;;1.90;;
16954;SDS011;8594;52.052;8.354;2022-11-15T12:33:31;4.70;;;1.90;;
16954;SDS011;8594;52.052;8.354;2022-11-15T12:36:08;8.23;;;1.80;;
16954;SDS011;8594;52.052;8.354;2022-11-15T12:41:28;4.10;;;1.60;;
16954;SDS011;8594;52.052;8.354;2022-11-15T12:43:56;6.03;;;2.40;;
16954;SDS011;8594;52.052;8.354;2022-11-15T12:49:45;4.13;;;1.70;;
16954;SDS011;8594;52.052;8.354;2022-11-15T12:52:15;5.10;;;1.90;;
16954;SDS011;8594;52.052;8.354;2022-11-15T12:54:55;16.63;;;7.87;;
16954;SDS011;8594;52.052;8.354;2022-11-15T12:57:37;56.03;;;23.20;;
16954;SDS011;8594;52.052;8.354;2022-11-15T13:03:18;6.03;;;3.07;;
16954;SDS011;8594;52.052;8.354;2022-11-15T13:15:38;3.53;;;1.90;;
16954;SDS011;8594;52.052;8.354;2022-11-15T13:18:34;2.33;;;1.80;;
16954;SDS011;8594;52.052;8.354;2022-11-15T13:21:25;2.50;;;1.70;;
16954;SDS011;8594;52.052;8.354;2022-11-15T13:24:29;3.70;;;1.90;;
16954;SDS011;8594;52.052;8.354;2022-11-15T13:27:02;2.77;;;1.80;;
16954;SDS011;8594;52.052;8.354;2022-11-15T13:29:50;4.20;;;1.60;;
16954;SDS011;8594;52.052;8.354;2022-11-15T13:32:28;4.07;;;2.00;;
16954;SDS011;8594;52.052;8.354;2022-11-15T13:35:17;3.83;;;1.93;;
16954;SDS011;8594;52.052;8.354;2022-11-15T13:38:04;3.83;;;1.93;;
16954;SDS011;8594;52.052;8.354;2022-11-15T13:40:34;8.10;;;1.80;;
16954;SDS011;8594;52.052;8.354;2022-11-15T13:43:17;3.47;;;1.90;;
16954;SDS011;8594;52.052;8.354;2022-11-15T13:46:05;3.07;;;2.10;;
16954;SDS011;8594;52.052;8.354;2022-11-15T13:48:37;3.10;;;1.70;;
16954;SDS011;8594;52.052;8.354;2022-11-15T13:51:09;7.43;;;1.73;;
16954;SDS011;8594;52.052;8.354;2022-11-15T13:53:49;1.73;;;1.50;;
16954;SDS011;8594;52.052;8.354;2022-11-15T13:56:22;8.40;;;1.80;;
16954;SDS011;8594;52.052;8.354;2022-11-15T13:58:51;2.27;;;1.53;;
16954;SDS011;8594;52.052;8.354;2022-11-15T14:01:34;3.20;;;1.90;;
16954;SDS011;8594;52.052;8.354;2022-11-15T14:04:02;6.00;;;1.57;;
16954;SDS011;8594;52.052;8.354;2022-11-15T14:06:30;3.30;;;1.70;;
16954;SDS011;8594;52.052;8.354;2022-11-15T14:11:59;2.03;;;1.50;;
16954;SDS011;8594;52.052;8.354;2022-11-15T14:14:30;2.87;;;1.83;;
16954;SDS011;8594;52.052;8.354;2022-11-15T14:16:59;2.13;;;1.53;;
16954;SDS011;8594;52.052;8.354;2022-11-15T14:19:35;3.50;;;1.80;;
16954;SDS011;8594;52.052;8.354;2022-11-15T14:22:10;4.97;;;1.60;;
16954;SDS011;8594;52.052;8.354;2022-11-15T14:24:43;2.47;;;1.70;;
16954;SDS011;8594;52.052;8.354;2022-11-15T14:27:21;4.73;;;1.80;;
16954;SDS011;8594;52.052;8.354;2022-11-15T14:29:51;4.07;;;1.70;;
16954;SDS011;8594;52.052;8.354;2022-11-15T14:32:20;2.30;;;1.80;;
16954;SDS011;8594;52.052;8.354;2022-11-15T14:34:49;4.23;;;1.70;;
16954;SDS011;8594;52.052;8.354;2022-11-15T14:37:30;2.47;;;1.63;;
16954;SDS011;8594;52.052;8.354;2022-11-15T14:40:00;4.37;;;2.10;;
16954;SDS011;8594;52.052;8.354;2022-11-15T14:42:28;4.37;;;1.80;;
16954;SDS011;8594;52.052;8.354;2022-11-15T14:44:55;6.50;;;1.93;;
16954;SDS011;8594;52.052;8.354;2022-11-15T14:47:23;2.77;;;1.77;;
16954;SDS011;8594;52.052;8.354;2022-11-15T14:49:49;4.27;;;1.73;;
16954;SDS011;8594;52.052;8.354;2022-11-15T14:52:23;4.17;;;1.57;;
16954;SDS011;8594;52.052;8.354;2022-11-15T14:54:55;5.83;;;1.70;;
16954;SDS011;8594;52.052;8.354;2022-11-15T14:57:24;2.47;;;1.60;;
16954;SDS011;8594;52.052;8.354;2022-11-15T14:59:51;2.20;;;1.50;;
16954;SDS011;8594;52.052;8.354;2022-11-15T15:02:18;3.87;;;1.80;;
16954;SDS011;8594;52.052;8.354;2022-11-15T15:04:47;3.80;;;1.80;;
16954;SDS011;8594;52.052;8.354;2022-11-15T15:07:15;5.33;;;1.60;;
16954;SDS011;8594;52.052;8.354;2022-11-15T15:09:43;2.33;;;1.50;;
16954;SDS011;8594;52.052;8.354;2022-11-15T15:12:19;4.23;;;1.87;;
16954;SDS011;8594;52.052;8.354;2022-11-15T15:14:49;5.10;;;2.00;;
16954;SDS011;8594;52.052;8.354;2022-11-15T15:17:17;3.40;;;1.40;;
16954;SDS011;8594;52.052;8.354;2022-11-15T15:19:44;4.03;;;1.90;;
16954;SDS011;8594;52.052;8.354;2022-11-15T15:22:11;6.53;;;1.80;;
16954;SDS011;8594;52.052;8.354;2022-11-15T15:24:42;2.10;;;1.50;;
16954;SDS011;8594;52.052;8.354;2022-11-15T15:27:10;3.13;;;1.90;;
16954;SDS011;8594;52.052;8.354;2022-11-15T15:29:39;5.13;;;2.00;;
16954;SDS011;8594;52.052;8.354;2022-11-15T15:32:07;6.20;;;2.20;;
16954;SDS011;8594;52.052;8.354;2022-11-15T15:34:35;4.27;;;1.53;;
16954;SDS011;8594;52.052;8.354;2022-11-15T15:39:51;2.43;;;1.50;;
16954;SDS011;8594;52.052;8.354;2022-11-15T15:42:20;5.00;;;1.83;;
16954;SDS011;8594;52.052;8.354;2022-11-15T15:44:49;3.83;;;2.30;;
16954;SDS011;8594;52.052;8.354;2022-11-15T15:47:18;6.73;;;1.83;;
16954;SDS011;8594;52.052;8.354;2022-11-15T15:49:48;3.83;;;1.90;;
16954;SDS011;8594;52.052;8.354;2022-11-15T15:52:16;3.57;;;1.70;;